sensor_id;sensor_type;location;lat;lon;timestamp;P1;durP1;ratioP1;P2;durP2;ratioP2
37787;SDS011;23627;53.302;-6.362;2023-06-10T00:01:55;5.93;;;4.70;;
37787;SDS011;23627;53.302;-6.362;2023-06-10T00:04:23;6.85;;;4.93;;
37787;SDS011;23627;53.302;-6.362;2023-06-10T00:06:48;7.85;;;5.03;;
37787;SDS011;23627;53.302;-6.362;2023-06-10T00:09:15;7.55;;;4.60;;
37787;SDS011;23627;53.302;-6.362;2023-06-10T00:11:41;6.78;;;5.30;;
37787;SDS011;23627;53.302;-6.362;2023-06-10T00:14:07;5.40;;;4.82;;
37787;SDS011;23627;53.302;-6.362;2023-06-10T00:16:34;6.47;;;4.53;;
37787;SDS011;23627;53.302;-6.362;2023-06-10T00:19:01;7.15;;;4.72;;
37787;SDS011;23627;53.302;-6.362;2023-06-10T00:21:28;7.15;;;4.90;;
37787;SDS011;23627;53.302;-6.362;2023-06-10T00:23:55;7.90;;;4.95;;
37787;SDS011;23627;53.302;-6.362;2023-06-10T00:26:22;6.35;;;4.35;;
37787;SDS011;23627;53.302;-6.362;2023-06-10T00:28:48;6.53;;;5.13;;
37787;SDS011;23627;53.302;-6.362;2023-06-10T00:31:14;6.75;;;4.75;;
37787;SDS011;23627;53.302;-6.362;2023-06-10T00:33:40;6.38;;;5.10;;
37787;SDS011;23627;53.302;-6.362;2023-06-10T00:36:06;6.45;;;4.75;;
37787;SDS011;23627;53.302;-6.362;2023-06-10T00:38:31;5.75;;;4.78;;
37787;SDS011;23627;53.302;-6.362;2023-06-10T00:40:58;6.55;;;4.82;;
37787;SDS011;23627;53.302;-6.362;2023-06-10T00:43:24;6.57;;;5.18;;
37787;SDS011;23627;53.302;-6.362;2023-06-10T00:45:50;6.13;;;4.75;;
37787;SDS011;23627;53.302;-6.362;2023-06-10T00:48:17;6.43;;;5.00;;
37787;SDS011;23627;53.302;-6.362;2023-06-10T00:50:43;5.80;;;4.53;;
37787;SDS011;23627;53.302;-6.362;2023-06-10T00:53:11;6.07;;;4.95;;
37787;SDS011;23627;53.302;-6.362;2023-06-10T00:55:37;7.82;;;5.38;;
37787;SDS011;23627;53.302;-6.362;2023-06-10T00:58:04;6.70;;;4.63;;
37787;SDS011;23627;53.302;-6.362;2023-06-10T01:00:30;6.18;;;5.03;;
37787;SDS011;23627;53.302;-6.362;2023-06-10T01:02:56;6.95;;;5.10;;
37787;SDS011;23627;53.302;-6.362;2023-06-10T01:05:22;7.35;;;5.40;;
37787;SDS011;23627;53.302;-6.362;2023-06-10T01:07:50;7.47;;;4.90;;
37787;SDS011;23627;53.302;-6.362;2023-06-10T01:10:34;6.93;;;5.00;;
37787;SDS011;23627;53.302;-6.362;2023-06-10T01:13:28;7.80;;;5.15;;
37787;SDS011;23627;53.302;-6.362;2023-06-10T01:15:57;7.00;;;4.85;;
37787;SDS011;23627;53.302;-6.362;2023-06-10T01:18:29;7.07;;;5.38;;
37787;SDS011;23627;53.302;-6.362;2023-06-10T01:20:57;8.27;;;5.28;;
37787;SDS011;23627;53.302;-6.362;2023-06-10T01:23:23;7.35;;;5.60;;
37787;SDS011;23627;53.302;-6.362;2023-06-10T01:25:52;6.22;;;5.00;;
37787;SDS011;23627;53.302;-6.362;2023-06-10T01:28:31;6.35;;;4.95;;
37787;SDS011;23627;53.302;-6.362;2023-06-10T01:31:23;7.75;;;5.35;;
37787;SDS011;23627;53.302;-6.362;2023-06-10T01:34:02;6.60;;;5.03;;
37787;SDS011;23627;53.302;-6.362;2023-06-10T01:36:33;9.50;;;5.18;;
37787;SDS011;23627;53.302;-6.362;2023-06-10T01:39:00;7.38;;;5.45;;
37787;SDS011;23627;53.302;-6.362;2023-06-10T01:41:27;8.02;;;5.25;;
37787;SDS011;23627;53.302;-6.362;2023-06-10T01:43:54;6.78;;;5.43;;
37787;SDS011;23627;53.302;-6.362;2023-06-10T01:46:20;7.65;;;5.32;;
37787;SDS011;23627;53.302;-6.362;2023-06-10T01:48:47;7.65;;;5.35;;
37787;SDS011;23627;53.302;-6.362;2023-06-10T01:51:13;6.85;;;5.28;;
37787;SDS011;23627;53.302;-6.362;2023-06-10T01:53:39;7.88;;;5.63;;
37787;SDS011;23627;53.302;-6.362;2023-06-10T01:56:05;8.30;;;5.15;;
37787;SDS011;23627;53.302;-6.362;2023-06-10T01:58:30;6.75;;;5.50;;
37787;SDS011;23627;53.302;-6.362;2023-06-10T02:00:56;7.13;;;5.55;;
37787;SDS011;23627;53.302;-6.362;2023-06-10T02:03:22;7.40;;;5.18;;
37787;SDS011;23627;53.302;-6.362;2023-06-10T02:05:48;6.40;;;5.18;;
37787;SDS011;23627;53.302;-6.362;2023-06-10T02:08:14;7.82;;;5.35;;
37787;SDS011;23627;53.302;-6.362;2023-06-10T02:10:40;6.45;;;5.10;;
37787;SDS011;23627;53.302;-6.362;2023-06-10T02:13:06;7.18;;;5.30;;
37787;SDS011;23627;53.302;-6.362;2023-06-10T02:15:31;7.35;;;5.03;;
37787;SDS011;23627;53.302;-6.362;2023-06-10T02:17:59;7.32;;;5.43;;
37787;SDS011;23627;53.302;-6.362;2023-06-10T02:20:25;6.85;;;5.22;;
37787;SDS011;23627;53.302;-6.362;2023-06-10T02:22:51;7.35;;;5.28;;
37787;SDS011;23627;53.302;-6.362;2023-06-10T02:25:17;6.75;;;5.50;;
37787;SDS011;23627;53.302;-6.362;2023-06-10T02:27:43;7.93;;;5.28;;
37787;SDS011;23627;53.302;-6.362;2023-06-10T02:30:09;7.28;;;5.72;;
37787;SDS011;23627;53.302;-6.362;2023-06-10T02:32:35;11.38;;;5.68;;
37787;SDS011;23627;53.302;-6.362;2023-06-10T02:35:01;8.30;;;6.20;;
37787;SDS011;23627;53.302;-6.362;2023-06-10T02:37:27;7.63;;;5.80;;
37787;SDS011;23627;53.302;-6.362;2023-06-10T02:39:53;8.90;;;6.45;;
37787;SDS011;23627;53.302;-6.362;2023-06-10T02:42:18;8.77;;;5.72;;
37787;SDS011;23627;53.302;-6.362;2023-06-10T02:44:44;8.52;;;6.03;;
37787;SDS011;23627;53.302;-6.362;2023-06-10T02:47:10;8.13;;;6.28;;
37787;SDS011;23627;53.302;-6.362;2023-06-10T02:49:36;10.15;;;6.80;;
37787;SDS011;23627;53.302;-6.362;2023-06-10T02:52:02;8.85;;;6.50;;
37787;SDS011;23627;53.302;-6.362;2023-06-10T02:54:27;10.48;;;6.22;;
37787;SDS011;23627;53.302;-6.362;2023-06-10T02:56:54;8.95;;;6.28;;
37787;SDS011;23627;53.302;-6.362;2023-06-10T02:59:21;9.20;;;6.55;;
37787;SDS011;23627;53.302;-6.362;2023-06-10T03:01:47;10.07;;;6.28;;
37787;SDS011;23627;53.302;-6.362;2023-06-10T03:04:13;7.72;;;6.15;;
37787;SDS011;23627;53.302;-6.362;2023-06-10T03:06:39;9.38;;;6.90;;
37787;SDS011;23627;53.302;-6.362;2023-06-10T03:09:10;10.75;;;7.00;;
37787;SDS011;23627;53.302;-6.362;2023-06-10T03:11:36;10.63;;;6.78;;
37787;SDS011;23627;53.302;-6.362;2023-06-10T03:14:02;9.02;;;6.63;;
37787;SDS011;23627;53.302;-6.362;2023-06-10T03:16:28;10.60;;;6.50;;
37787;SDS011;23627;53.302;-6.362;2023-06-10T03:18:57;9.95;;;6.55;;
37787;SDS011;23627;53.302;-6.362;2023-06-10T03:21:23;9.80;;;7.05;;
37787;SDS011;23627;53.302;-6.362;2023-06-10T03:23:49;9.70;;;6.72;;
37787;SDS011;23627;53.302;-6.362;2023-06-10T03:26:14;10.35;;;6.88;;
37787;SDS011;23627;53.302;-6.362;2023-06-10T03:28:40;11.18;;;6.55;;
37787;SDS011;23627;53.302;-6.362;2023-06-10T03:31:06;12.43;;;8.25;;
37787;SDS011;23627;53.302;-6.362;2023-06-10T03:33:32;11.07;;;6.60;;
37787;SDS011;23627;53.302;-6.362;2023-06-10T03:35:58;10.15;;;7.10;;
37787;SDS011;23627;53.302;-6.362;2023-06-10T03:38:24;10.68;;;6.97;;
37787;SDS011;23627;53.302;-6.362;2023-06-10T03:40:50;11.88;;;7.35;;
37787;SDS011;23627;53.302;-6.362;2023-06-10T03:43:16;11.38;;;7.55;;
37787;SDS011;23627;53.302;-6.362;2023-06-10T03:45:42;10.90;;;6.68;;
37787;SDS011;23627;53.302;-6.362;2023-06-10T03:48:07;10.27;;;6.50;;
37787;SDS011;23627;53.302;-6.362;2023-06-10T03:50:34;12.27;;;7.32;;
37787;SDS011;23627;53.302;-6.362;2023-06-10T03:53:01;9.25;;;6.60;;
37787;SDS011;23627;53.302;-6.362;2023-06-10T03:55:27;11.05;;;6.60;;
37787;SDS011;23627;53.302;-6.362;2023-06-10T03:57:53;7.78;;;6.45;;
37787;SDS011;23627;53.302;-6.362;2023-06-10T04:00:18;9.48;;;6.80;;
37787;SDS011;23627;53.302;-6.362;2023-06-10T04:02:46;9.02;;;6.57;;
37787;SDS011;23627;53.302;-6.362;2023-06-10T04:05:13;9.43;;;6.72;;
37787;SDS011;23627;53.302;-6.362;2023-06-10T04:07:40;11.50;;;7.05;;
37787;SDS011;23627;53.302;-6.362;2023-06-10T04:10:07;9.05;;;7.15;;
37787;SDS011;23627;53.302;-6.362;2023-06-10T04:12:34;11.02;;;7.82;;
37787;SDS011;23627;53.302;-6.362;2023-06-10T04:15:00;9.05;;;6.97;;
37787;SDS011;23627;53.302;-6.362;2023-06-10T04:17:26;10.93;;;6.88;;
37787;SDS011;23627;53.302;-6.362;2023-06-10T04:19:52;11.10;;;7.55;;
37787;SDS011;23627;53.302;-6.362;2023-06-10T04:22:19;10.27;;;7.20;;
37787;SDS011;23627;53.302;-6.362;2023-06-10T04:24:45;10.18;;;7.40;;
37787;SDS011;23627;53.302;-6.362;2023-06-10T04:27:11;9.30;;;6.75;;
37787;SDS011;23627;53.302;-6.362;2023-06-10T04:29:37;8.82;;;6.65;;
37787;SDS011;23627;53.302;-6.362;2023-06-10T04:32:03;9.98;;;6.72;;
37787;SDS011;23627;53.302;-6.362;2023-06-10T04:34:31;11.15;;;7.13;;
37787;SDS011;23627;53.302;-6.362;2023-06-10T04:36:58;10.27;;;6.82;;
37787;SDS011;23627;53.302;-6.362;2023-06-10T04:39:23;11.13;;;7.30;;
37787;SDS011;23627;53.302;-6.362;2023-06-10T04:41:49;9.02;;;6.60;;
37787;SDS011;23627;53.302;-6.362;2023-06-10T04:44:15;11.98;;;6.80;;
37787;SDS011;23627;53.302;-6.362;2023-06-10T04:46:40;9.82;;;6.97;;
37787;SDS011;23627;53.302;-6.362;2023-06-10T04:49:06;11.80;;;7.15;;
37787;SDS011;23627;53.302;-6.362;2023-06-10T04:51:32;10.80;;;6.82;;
37787;SDS011;23627;53.302;-6.362;2023-06-10T04:53:58;9.25;;;6.60;;
37787;SDS011;23627;53.302;-6.362;2023-06-10T04:56:27;11.95;;;7.00;;
37787;SDS011;23627;53.302;-6.362;2023-06-10T04:58:54;8.77;;;7.00;;
37787;SDS011;23627;53.302;-6.362;2023-06-10T05:01:19;12.27;;;7.00;;
37787;SDS011;23627;53.302;-6.362;2023-06-10T05:03:45;11.18;;;7.20;;
37787;SDS011;23627;53.302;-6.362;2023-06-10T05:06:11;10.57;;;7.32;;
37787;SDS011;23627;53.302;-6.362;2023-06-10T05:08:36;10.73;;;6.57;;
37787;SDS011;23627;53.302;-6.362;2023-06-10T05:11:02;10.30;;;7.10;;
37787;SDS011;23627;53.302;-6.362;2023-06-10T05:13:28;12.15;;;7.47;;
37787;SDS011;23627;53.302;-6.362;2023-06-10T05:15:54;9.18;;;6.75;;
37787;SDS011;23627;53.302;-6.362;2023-06-10T05:18:20;10.48;;;7.28;;
37787;SDS011;23627;53.302;-6.362;2023-06-10T05:20:46;11.23;;;7.03;;
37787;SDS011;23627;53.302;-6.362;2023-06-10T05:23:12;13.75;;;7.43;;
37787;SDS011;23627;53.302;-6.362;2023-06-10T05:25:37;11.05;;;6.95;;
37787;SDS011;23627;53.302;-6.362;2023-06-10T05:28:03;12.50;;;6.95;;
37787;SDS011;23627;53.302;-6.362;2023-06-10T05:30:29;11.25;;;7.30;;
37787;SDS011;23627;53.302;-6.362;2023-06-10T05:32:55;10.35;;;6.95;;
37787;SDS011;23627;53.302;-6.362;2023-06-10T05:35:21;12.20;;;7.10;;
37787;SDS011;23627;53.302;-6.362;2023-06-10T05:37:47;11.15;;;7.10;;
37787;SDS011;23627;53.302;-6.362;2023-06-10T05:40:13;11.18;;;6.60;;
37787;SDS011;23627;53.302;-6.362;2023-06-10T05:42:39;10.93;;;7.10;;
37787;SDS011;23627;53.302;-6.362;2023-06-10T05:45:05;12.80;;;7.07;;
37787;SDS011;23627;53.302;-6.362;2023-06-10T05:47:32;11.52;;;6.85;;
37787;SDS011;23627;53.302;-6.362;2023-06-10T05:49:57;10.75;;;6.82;;
37787;SDS011;23627;53.302;-6.362;2023-06-10T05:52:23;12.40;;;7.20;;
37787;SDS011;23627;53.302;-6.362;2023-06-10T05:54:49;12.82;;;7.18;;
37787;SDS011;23627;53.302;-6.362;2023-06-10T05:57:15;10.80;;;6.88;;
37787;SDS011;23627;53.302;-6.362;2023-06-10T05:59:41;11.40;;;7.30;;
37787;SDS011;23627;53.302;-6.362;2023-06-10T06:02:07;11.00;;;6.35;;
37787;SDS011;23627;53.302;-6.362;2023-06-10T06:04:33;9.02;;;6.47;;
37787;SDS011;23627;53.302;-6.362;2023-06-10T06:06:59;10.65;;;6.57;;
37787;SDS011;23627;53.302;-6.362;2023-06-10T06:09:25;11.30;;;6.32;;
37787;SDS011;23627;53.302;-6.362;2023-06-10T06:11:50;8.30;;;5.85;;
37787;SDS011;23627;53.302;-6.362;2023-06-10T06:14:16;10.43;;;6.13;;
37787;SDS011;23627;53.302;-6.362;2023-06-10T06:16:42;9.60;;;6.13;;
37787;SDS011;23627;53.302;-6.362;2023-06-10T06:19:08;11.85;;;6.75;;
37787;SDS011;23627;53.302;-6.362;2023-06-10T06:21:36;10.82;;;6.80;;
37787;SDS011;23627;53.302;-6.362;2023-06-10T06:24:02;10.95;;;6.60;;
37787;SDS011;23627;53.302;-6.362;2023-06-10T06:26:27;10.18;;;6.10;;
37787;SDS011;23627;53.302;-6.362;2023-06-10T06:28:53;10.15;;;5.80;;
37787;SDS011;23627;53.302;-6.362;2023-06-10T06:31:19;8.43;;;6.15;;
37787;SDS011;23627;53.302;-6.362;2023-06-10T06:33:45;13.15;;;6.72;;
37787;SDS011;23627;53.302;-6.362;2023-06-10T06:36:10;11.32;;;6.25;;
37787;SDS011;23627;53.302;-6.362;2023-06-10T06:38:36;9.43;;;5.90;;
37787;SDS011;23627;53.302;-6.362;2023-06-10T06:41:03;9.93;;;6.10;;
37787;SDS011;23627;53.302;-6.362;2023-06-10T06:43:31;9.20;;;5.80;;
37787;SDS011;23627;53.302;-6.362;2023-06-10T06:45:57;10.20;;;6.25;;
37787;SDS011;23627;53.302;-6.362;2023-06-10T06:48:23;9.15;;;5.53;;
37787;SDS011;23627;53.302;-6.362;2023-06-10T06:50:49;11.05;;;5.95;;
37787;SDS011;23627;53.302;-6.362;2023-06-10T06:53:15;8.55;;;5.90;;
37787;SDS011;23627;53.302;-6.362;2023-06-10T06:55:40;9.88;;;5.80;;
37787;SDS011;23627;53.302;-6.362;2023-06-10T06:58:06;10.88;;;6.00;;
37787;SDS011;23627;53.302;-6.362;2023-06-10T07:00:32;8.10;;;5.53;;
37787;SDS011;23627;53.302;-6.362;2023-06-10T07:02:58;8.52;;;5.47;;
37787;SDS011;23627;53.302;-6.362;2023-06-10T07:05:24;7.20;;;4.97;;
37787;SDS011;23627;53.302;-6.362;2023-06-10T07:07:52;9.40;;;5.38;;
37787;SDS011;23627;53.302;-6.362;2023-06-10T07:10:24;10.75;;;6.00;;
37787;SDS011;23627;53.302;-6.362;2023-06-10T07:12:51;9.25;;;5.25;;
37787;SDS011;23627;53.302;-6.362;2023-06-10T07:15:17;6.90;;;5.35;;
37787;SDS011;23627;53.302;-6.362;2023-06-10T07:17:43;9.18;;;5.45;;
37787;SDS011;23627;53.302;-6.362;2023-06-10T07:20:09;8.23;;;5.38;;
37787;SDS011;23627;53.302;-6.362;2023-06-10T07:22:35;7.80;;;5.55;;
37787;SDS011;23627;53.302;-6.362;2023-06-10T07:25:04;9.70;;;5.70;;
37787;SDS011;23627;53.302;-6.362;2023-06-10T07:27:30;9.90;;;5.68;;
37787;SDS011;23627;53.302;-6.362;2023-06-10T07:29:55;7.85;;;5.35;;
37787;SDS011;23627;53.302;-6.362;2023-06-10T07:32:21;9.13;;;5.68;;
37787;SDS011;23627;53.302;-6.362;2023-06-10T07:34:48;8.48;;;5.78;;
37787;SDS011;23627;53.302;-6.362;2023-06-10T07:37:15;10.85;;;5.50;;
37787;SDS011;23627;53.302;-6.362;2023-06-10T07:39:41;8.93;;;5.07;;
37787;SDS011;23627;53.302;-6.362;2023-06-10T07:42:08;10.13;;;5.68;;
37787;SDS011;23627;53.302;-6.362;2023-06-10T07:44:34;8.82;;;5.20;;
37787;SDS011;23627;53.302;-6.362;2023-06-10T07:47:00;8.77;;;5.47;;
37787;SDS011;23627;53.302;-6.362;2023-06-10T07:49:25;7.55;;;5.40;;
37787;SDS011;23627;53.302;-6.362;2023-06-10T07:51:53;8.43;;;5.35;;
37787;SDS011;23627;53.302;-6.362;2023-06-10T07:54:20;8.70;;;5.28;;
37787;SDS011;23627;53.302;-6.362;2023-06-10T07:56:46;8.43;;;5.00;;
37787;SDS011;23627;53.302;-6.362;2023-06-10T07:59:13;8.98;;;5.60;;
37787;SDS011;23627;53.302;-6.362;2023-06-10T08:01:39;9.80;;;5.60;;
37787;SDS011;23627;53.302;-6.362;2023-06-10T08:04:05;8.73;;;5.60;;
37787;SDS011;23627;53.302;-6.362;2023-06-10T08:06:31;9.35;;;5.55;;
37787;SDS011;23627;53.302;-6.362;2023-06-10T08:08:57;10.07;;;5.40;;
37787;SDS011;23627;53.302;-6.362;2023-06-10T08:11:23;7.38;;;5.20;;
37787;SDS011;23627;53.302;-6.362;2023-06-10T08:13:49;8.85;;;5.30;;
37787;SDS011;23627;53.302;-6.362;2023-06-10T08:16:16;9.70;;;5.70;;
37787;SDS011;23627;53.302;-6.362;2023-06-10T08:18:42;10.45;;;5.50;;
37787;SDS011;23627;53.302;-6.362;2023-06-10T08:21:07;9.98;;;5.85;;
37787;SDS011;23627;53.302;-6.362;2023-06-10T08:23:33;11.20;;;5.70;;
37787;SDS011;23627;53.302;-6.362;2023-06-10T08:25:59;9.18;;;5.40;;
37787;SDS011;23627;53.302;-6.362;2023-06-10T08:28:25;8.82;;;5.60;;
37787;SDS011;23627;53.302;-6.362;2023-06-10T08:30:50;9.90;;;5.90;;
37787;SDS011;23627;53.302;-6.362;2023-06-10T08:33:16;7.55;;;5.35;;
37787;SDS011;23627;53.302;-6.362;2023-06-10T08:35:42;8.40;;;5.30;;
37787;SDS011;23627;53.302;-6.362;2023-06-10T08:38:08;9.85;;;5.68;;
37787;SDS011;23627;53.302;-6.362;2023-06-10T08:40:34;8.45;;;5.75;;
37787;SDS011;23627;53.302;-6.362;2023-06-10T08:43:06;10.15;;;5.70;;
37787;SDS011;23627;53.302;-6.362;2023-06-10T08:45:36;10.25;;;5.35;;
37787;SDS011;23627;53.302;-6.362;2023-06-10T08:48:05;7.78;;;5.45;;
37787;SDS011;23627;53.302;-6.362;2023-06-10T08:50:35;6.55;;;5.20;;
37787;SDS011;23627;53.302;-6.362;2023-06-10T08:53:05;7.47;;;5.18;;
37787;SDS011;23627;53.302;-6.362;2023-06-10T08:55:32;8.40;;;5.60;;
37787;SDS011;23627;53.302;-6.362;2023-06-10T08:58:00;9.23;;;5.32;;
37787;SDS011;23627;53.302;-6.362;2023-06-10T09:00:26;9.48;;;5.60;;
37787;SDS011;23627;53.302;-6.362;2023-06-10T09:02:54;8.68;;;5.40;;
37787;SDS011;23627;53.302;-6.362;2023-06-10T09:05:24;10.48;;;5.72;;
37787;SDS011;23627;53.302;-6.362;2023-06-10T09:07:51;9.68;;;5.60;;
37787;SDS011;23627;53.302;-6.362;2023-06-10T09:10:17;8.13;;;5.90;;
37787;SDS011;23627;53.302;-6.362;2023-06-10T09:12:43;9.35;;;5.82;;
37787;SDS011;23627;53.302;-6.362;2023-06-10T09:15:10;8.13;;;5.75;;
37787;SDS011;23627;53.302;-6.362;2023-06-10T09:17:37;7.72;;;5.78;;
37787;SDS011;23627;53.302;-6.362;2023-06-10T09:20:06;7.65;;;5.63;;
37787;SDS011;23627;53.302;-6.362;2023-06-10T09:22:33;6.88;;;5.38;;
37787;SDS011;23627;53.302;-6.362;2023-06-10T09:25:05;9.10;;;5.53;;
37787;SDS011;23627;53.302;-6.362;2023-06-10T09:27:55;8.50;;;5.30;;
37787;SDS011;23627;53.302;-6.362;2023-06-10T09:30:28;7.35;;;5.30;;
37787;SDS011;23627;53.302;-6.362;2023-06-10T09:33:03;9.40;;;5.32;;
37787;SDS011;23627;53.302;-6.362;2023-06-10T09:35:37;9.48;;;5.82;;
37787;SDS011;23627;53.302;-6.362;2023-06-10T09:38:11;13.05;;;5.80;;
37787;SDS011;23627;53.302;-6.362;2023-06-10T09:40:58;9.55;;;5.88;;
37787;SDS011;23627;53.302;-6.362;2023-06-10T09:43:26;8.98;;;6.15;;
37787;SDS011;23627;53.302;-6.362;2023-06-10T09:46:17;8.68;;;5.25;;
37787;SDS011;23627;53.302;-6.362;2023-06-10T09:48:45;10.32;;;5.57;;
37787;SDS011;23627;53.302;-6.362;2023-06-10T09:51:12;8.93;;;5.82;;
37787;SDS011;23627;53.302;-6.362;2023-06-10T09:53:39;8.90;;;5.90;;
37787;SDS011;23627;53.302;-6.362;2023-06-10T09:56:05;10.70;;;6.00;;
37787;SDS011;23627;53.302;-6.362;2023-06-10T09:58:38;8.25;;;5.60;;
37787;SDS011;23627;53.302;-6.362;2023-06-10T10:01:11;10.45;;;5.65;;
37787;SDS011;23627;53.302;-6.362;2023-06-10T10:03:44;11.45;;;6.28;;
37787;SDS011;23627;53.302;-6.362;2023-06-10T10:06:20;10.48;;;6.28;;
37787;SDS011;23627;53.302;-6.362;2023-06-10T10:08:49;9.80;;;6.05;;
37787;SDS011;23627;53.302;-6.362;2023-06-10T10:11:20;9.50;;;6.05;;
37787;SDS011;23627;53.302;-6.362;2023-06-10T10:13:52;9.10;;;6.15;;
37787;SDS011;23627;53.302;-6.362;2023-06-10T10:16:33;9.10;;;5.80;;
37787;SDS011;23627;53.302;-6.362;2023-06-10T10:19:18;10.95;;;5.78;;
37787;SDS011;23627;53.302;-6.362;2023-06-10T10:21:52;11.48;;;5.97;;
37787;SDS011;23627;53.302;-6.362;2023-06-10T10:24:23;10.43;;;5.75;;
37787;SDS011;23627;53.302;-6.362;2023-06-10T10:26:58;12.07;;;6.35;;
37787;SDS011;23627;53.302;-6.362;2023-06-10T10:29:30;13.55;;;6.65;;
37787;SDS011;23627;53.302;-6.362;2023-06-10T10:32:01;14.27;;;6.63;;
37787;SDS011;23627;53.302;-6.362;2023-06-10T10:37:20;13.55;;;6.45;;
37787;SDS011;23627;53.302;-6.362;2023-06-10T10:39:46;10.90;;;6.22;;
37787;SDS011;23627;53.302;-6.362;2023-06-10T10:42:12;10.95;;;6.15;;
37787;SDS011;23627;53.302;-6.362;2023-06-10T10:48:04;10.38;;;6.18;;
37787;SDS011;23627;53.302;-6.362;2023-06-10T10:50:35;9.90;;;6.05;;
37787;SDS011;23627;53.302;-6.362;2023-06-10T10:53:01;11.82;;;6.35;;
37787;SDS011;23627;53.302;-6.362;2023-06-10T10:55:29;9.88;;;6.20;;
37787;SDS011;23627;53.302;-6.362;2023-06-10T10:57:59;10.90;;;6.68;;
37787;SDS011;23627;53.302;-6.362;2023-06-10T11:00:32;11.75;;;6.70;;
37787;SDS011;23627;53.302;-6.362;2023-06-10T11:03:00;10.02;;;6.32;;
37787;SDS011;23627;53.302;-6.362;2023-06-10T11:08:10;11.70;;;6.40;;
37787;SDS011;23627;53.302;-6.362;2023-06-10T11:10:40;9.30;;;6.45;;
37787;SDS011;23627;53.302;-6.362;2023-06-10T11:13:19;10.25;;;6.13;;
37787;SDS011;23627;53.302;-6.362;2023-06-10T11:15:46;11.55;;;6.28;;
37787;SDS011;23627;53.302;-6.362;2023-06-10T11:18:28;8.88;;;5.55;;
37787;SDS011;23627;53.302;-6.362;2023-06-10T11:20:57;9.48;;;5.80;;
37787;SDS011;23627;53.302;-6.362;2023-06-10T11:26:18;8.85;;;5.85;;
37787;SDS011;23627;53.302;-6.362;2023-06-10T11:31:23;7.85;;;5.78;;
37787;SDS011;23627;53.302;-6.362;2023-06-10T11:33:54;12.45;;;6.25;;
37787;SDS011;23627;53.302;-6.362;2023-06-10T11:36:21;9.18;;;5.80;;
37787;SDS011;23627;53.302;-6.362;2023-06-10T11:38:48;9.25;;;6.00;;
37787;SDS011;23627;53.302;-6.362;2023-06-10T11:41:14;8.05;;;5.78;;
37787;SDS011;23627;53.302;-6.362;2023-06-10T11:43:45;8.63;;;5.93;;
37787;SDS011;23627;53.302;-6.362;2023-06-10T11:46:12;8.98;;;5.75;;
37787;SDS011;23627;53.302;-6.362;2023-06-10T11:48:39;9.77;;;6.03;;
37787;SDS011;23627;53.302;-6.362;2023-06-10T11:51:13;8.85;;;5.68;;
37787;SDS011;23627;53.302;-6.362;2023-06-10T11:53:38;9.55;;;5.90;;
37787;SDS011;23627;53.302;-6.362;2023-06-10T11:56:04;9.25;;;6.20;;
37787;SDS011;23627;53.302;-6.362;2023-06-10T11:58:30;9.90;;;5.85;;
37787;SDS011;23627;53.302;-6.362;2023-06-10T12:00:56;9.52;;;5.72;;
37787;SDS011;23627;53.302;-6.362;2023-06-10T12:03:23;8.70;;;5.68;;
37787;SDS011;23627;53.302;-6.362;2023-06-10T12:08:25;8.35;;;5.93;;
37787;SDS011;23627;53.302;-6.362;2023-06-10T12:10:52;8.85;;;5.90;;
37787;SDS011;23627;53.302;-6.362;2023-06-10T12:13:18;11.02;;;6.38;;
37787;SDS011;23627;53.302;-6.362;2023-06-10T12:15:44;11.23;;;6.38;;
37787;SDS011;23627;53.302;-6.362;2023-06-10T12:18:20;9.15;;;6.30;;
37787;SDS011;23627;53.302;-6.362;2023-06-10T12:20:47;9.48;;;5.85;;
37787;SDS011;23627;53.302;-6.362;2023-06-10T12:23:14;10.48;;;6.13;;
37787;SDS011;23627;53.302;-6.362;2023-06-10T12:25:50;8.48;;;6.50;;
37787;SDS011;23627;53.302;-6.362;2023-06-10T12:28:20;10.98;;;6.55;;
37787;SDS011;23627;53.302;-6.362;2023-06-10T12:30:47;10.75;;;6.35;;
37787;SDS011;23627;53.302;-6.362;2023-06-10T12:33:16;8.55;;;6.45;;
37787;SDS011;23627;53.302;-6.362;2023-06-10T12:35:49;10.48;;;7.03;;
37787;SDS011;23627;53.302;-6.362;2023-06-10T12:38:23;10.05;;;6.97;;
37787;SDS011;23627;53.302;-6.362;2023-06-10T12:40:49;8.98;;;6.20;;
37787;SDS011;23627;53.302;-6.362;2023-06-10T12:43:22;10.15;;;6.80;;
37787;SDS011;23627;53.302;-6.362;2023-06-10T12:45:48;10.93;;;6.50;;
37787;SDS011;23627;53.302;-6.362;2023-06-10T12:48:19;10.23;;;6.70;;
37787;SDS011;23627;53.302;-6.362;2023-06-10T12:50:52;11.00;;;6.57;;
37787;SDS011;23627;53.302;-6.362;2023-06-10T12:53:20;9.98;;;6.05;;
37787;SDS011;23627;53.302;-6.362;2023-06-10T12:55:47;10.52;;;6.70;;
37787;SDS011;23627;53.302;-6.362;2023-06-10T12:58:13;9.02;;;6.10;;
37787;SDS011;23627;53.302;-6.362;2023-06-10T13:00:39;9.30;;;5.90;;
37787;SDS011;23627;53.302;-6.362;2023-06-10T13:03:07;10.23;;;7.20;;
37787;SDS011;23627;53.302;-6.362;2023-06-10T13:05:34;10.05;;;6.45;;
37787;SDS011;23627;53.302;-6.362;2023-06-10T13:08:02;9.52;;;6.07;;
37787;SDS011;23627;53.302;-6.362;2023-06-10T13:10:28;8.00;;;6.32;;
37787;SDS011;23627;53.302;-6.362;2023-06-10T13:12:54;11.25;;;7.00;;
37787;SDS011;23627;53.302;-6.362;2023-06-10T13:15:20;9.20;;;6.35;;
37787;SDS011;23627;53.302;-6.362;2023-06-10T13:17:46;9.75;;;6.53;;
37787;SDS011;23627;53.302;-6.362;2023-06-10T13:20:14;10.70;;;6.28;;
37787;SDS011;23627;53.302;-6.362;2023-06-10T13:22:43;9.25;;;6.43;;
37787;SDS011;23627;53.302;-6.362;2023-06-10T13:25:10;10.18;;;6.90;;
37787;SDS011;23627;53.302;-6.362;2023-06-10T13:27:36;10.00;;;6.50;;
37787;SDS011;23627;53.302;-6.362;2023-06-10T13:30:06;11.00;;;6.35;;
37787;SDS011;23627;53.302;-6.362;2023-06-10T13:32:33;7.90;;;6.20;;
37787;SDS011;23627;53.302;-6.362;2023-06-10T13:35:00;10.20;;;6.43;;
37787;SDS011;23627;53.302;-6.362;2023-06-10T13:37:26;9.50;;;6.05;;
37787;SDS011;23627;53.302;-6.362;2023-06-10T13:39:52;9.55;;;6.55;;
37787;SDS011;23627;53.302;-6.362;2023-06-10T13:42:18;7.75;;;6.38;;
37787;SDS011;23627;53.302;-6.362;2023-06-10T13:44:45;7.55;;;6.20;;
37787;SDS011;23627;53.302;-6.362;2023-06-10T13:47:12;8.88;;;6.50;;
37787;SDS011;23627;53.302;-6.362;2023-06-10T13:49:39;9.77;;;6.45;;
37787;SDS011;23627;53.302;-6.362;2023-06-10T13:52:05;8.75;;;6.70;;
37787;SDS011;23627;53.302;-6.362;2023-06-10T13:54:31;8.98;;;6.20;;
37787;SDS011;23627;53.302;-6.362;2023-06-10T13:56:57;9.00;;;6.20;;
37787;SDS011;23627;53.302;-6.362;2023-06-10T13:59:25;9.15;;;5.95;;
37787;SDS011;23627;53.302;-6.362;2023-06-10T14:01:51;9.50;;;6.30;;
37787;SDS011;23627;53.302;-6.362;2023-06-10T14:04:17;8.70;;;6.38;;
37787;SDS011;23627;53.302;-6.362;2023-06-10T14:06:42;8.75;;;6.32;;
37787;SDS011;23627;53.302;-6.362;2023-06-10T14:09:08;8.77;;;6.38;;
37787;SDS011;23627;53.302;-6.362;2023-06-10T14:11:34;8.18;;;6.50;;
37787;SDS011;23627;53.302;-6.362;2023-06-10T14:14:00;8.65;;;6.32;;
37787;SDS011;23627;53.302;-6.362;2023-06-10T14:16:26;8.25;;;6.10;;
37787;SDS011;23627;53.302;-6.362;2023-06-10T14:18:52;9.95;;;6.68;;
37787;SDS011;23627;53.302;-6.362;2023-06-10T14:21:18;10.25;;;6.90;;
37787;SDS011;23627;53.302;-6.362;2023-06-10T14:23:44;8.68;;;6.55;;
37787;SDS011;23627;53.302;-6.362;2023-06-10T14:26:10;10.68;;;6.85;;
37787;SDS011;23627;53.302;-6.362;2023-06-10T14:28:37;8.25;;;6.10;;
37787;SDS011;23627;53.302;-6.362;2023-06-10T14:31:03;9.15;;;6.15;;
37787;SDS011;23627;53.302;-6.362;2023-06-10T14:33:28;9.90;;;6.90;;
37787;SDS011;23627;53.302;-6.362;2023-06-10T14:35:56;7.38;;;6.20;;
37787;SDS011;23627;53.302;-6.362;2023-06-10T14:38:22;7.95;;;6.53;;
37787;SDS011;23627;53.302;-6.362;2023-06-10T14:40:48;8.82;;;6.47;;
37787;SDS011;23627;53.302;-6.362;2023-06-10T14:43:14;8.07;;;6.25;;
37787;SDS011;23627;53.302;-6.362;2023-06-10T14:45:39;7.75;;;6.68;;
37787;SDS011;23627;53.302;-6.362;2023-06-10T14:48:05;8.52;;;6.40;;
37787;SDS011;23627;53.302;-6.362;2023-06-10T14:50:32;9.05;;;6.68;;